This is the latest recevied weather packets stored in our database for station/object K7ZQU-7. If no packets are shown the sender has not sent any weather packets the latest 10 day(s).
| Time | Temp. | Humidity | Pressure | Rain* | Wind** | Luminosity | Snow |
|---|---|---|---|---|---|---|---|
| 1777916079 | 18.89° C | 43% | 1012.5 hPa | 0 mm | 1.79 m/s, 298° | - | - |
| 1777915780 | 18.89° C | 41% | 1012.4 hPa | 0 mm | 3.13 m/s, 280° | - | - |
| 1777915481 | 18.33° C | 48% | 1012.2 hPa | 0 mm | 0.45 m/s, 316° | - | - |
| 1777915180 | 18.33° C | 47% | 1012.4 hPa | 0 mm | 1.79 m/s, 287° | - | - |
| 1777914881 | 17.78° C | 51% | 1012.2 hPa | 0 mm | 2.24 m/s, 284° | - | - |
| 1777914283 | 17.22° C | 51% | 1012.2 hPa | 0 mm | 1.79 m/s, 321° | - | - |
| 1777912785 | 16.67° C | 56% | 1012 hPa | 0 mm | 1.34 m/s, 302° | - | - |
| 1777908888 | 13.89° C | 64% | 1011.7 hPa | 0 mm | 1.34 m/s, 323° | - | - |
| 1777908589 | 13.33° C | 66% | 1011.5 hPa | 0 mm | 1.79 m/s, 321° | - | - |
| 1777907688 | 12.78° C | 69% | 1011.5 hPa | 0 mm | 0.89 m/s, 274° | - | - |
| 1777906791 | 11.67° C | 70% | 1011.4 hPa | 0 mm | 1.79 m/s, 346° | - | - |
| 1777905890 | 11.11° C | 76% | 1011.5 hPa | 0 mm | 0.45 m/s, 285° | - | - |
| 1777905292 | 9.44° C | 80% | 1011.5 hPa | 0 mm | 0.45 m/s, 316° | - | - |
| 1777904993 | 8.89° C | 82% | 1011.5 hPa | 0 mm | 0.45 m/s, 309° | - | - |
| 1777904691 | 8.33° C | 84% | 1011.5 hPa | 0 mm | 0.89 m/s, 274° | - | - |
| 1777901695 | 5.56° C | 89% | 1011.3 hPa | 0 mm | 0 m/s | - | - |
| 1777900798 | 5.56° C | 88% | 1011.3 hPa | 0 mm | 0 m/s | - | - |
| 1777900499 | 5.56° C | 88% | 1011.2 hPa | 0 mm | 0 m/s | - | - |
| 1777900198 | 5.56° C | 88% | 1011.2 hPa | 0 mm | 0 m/s | - | - |
| 1777898401 | 4.44° C | 88% | 1011.3 hPa | 0 mm | 0 m/s | - | - |
| 1777898102 | 4.44° C | 88% | 1011.3 hPa | 0 mm | 0 m/s | - | - |
| 1777897803 | 4.44° C | 89% | 1011.3 hPa | 0 mm | 0 m/s | - | - |
| 1777897504 | 4.44° C | 88% | 1011.2 hPa | 0 mm | 0 m/s | - | - |
| 1777897202 | 4.44° C | 88% | 1011.2 hPa | 0 mm | 0 m/s | - | - |
| 1777896903 | 4.44° C | 88% | 1011.2 hPa | 0 mm | 0 m/s | - | - |
* Rain latest hour (hover to see other rain measurements)
** Current wind speed in m/s (hover to see current wind gust speed)